createdAt,value
2023-05-16T00:02:55.984Z,1.70
2023-05-16T00:07:02.035Z,1.87
2023-05-16T00:11:05.510Z,1.60
2023-05-16T00:15:12.995Z,2.17
2023-05-16T00:19:16.480Z,2.10
2023-05-16T00:23:22.024Z,2.17
2023-05-16T00:27:25.547Z,2.07
2023-05-16T00:31:29.057Z,1.90
2023-05-16T00:35:32.583Z,1.97
2023-05-16T00:39:37.605Z,1.97
2023-05-16T00:43:41.183Z,2.10
2023-05-16T00:47:44.802Z,1.70
2023-05-16T00:51:49.681Z,2.43
2023-05-16T00:55:57.726Z,2.20
2023-05-16T01:00:01.220Z,2.40
2023-05-16T01:04:06.858Z,2.00
2023-05-16T01:08:11.221Z,1.83
2023-05-16T01:12:25.140Z,2.03
2023-05-16T01:16:35.063Z,2.47
2023-05-16T01:20:46.280Z,2.23
2023-05-16T01:25:04.058Z,2.33
2023-05-16T01:29:09.525Z,2.23
2023-05-16T01:33:13.378Z,2.73
2023-05-16T01:37:22.798Z,2.40
2023-05-16T01:41:31.025Z,2.50
2023-05-16T01:45:39.445Z,2.50
2023-05-16T01:49:50.938Z,2.60
2023-05-16T01:53:57.866Z,2.17
2023-05-16T01:58:04.680Z,2.37
2023-05-16T02:02:10.095Z,2.63
2023-05-16T02:06:14.946Z,2.50
2023-05-16T02:10:20.447Z,2.30
2023-05-16T02:14:25.973Z,2.47
2023-05-16T02:18:32.143Z,2.70
2023-05-16T02:22:36.287Z,2.63
2023-05-16T02:26:41.030Z,2.80
2023-05-16T02:30:44.667Z,3.13
2023-05-16T02:34:50.665Z,2.67
2023-05-16T02:38:54.182Z,2.50
2023-05-16T02:42:59.170Z,2.50
2023-05-16T02:47:02.566Z,2.90
2023-05-16T02:51:07.640Z,2.53
2023-05-16T02:55:21.785Z,3.30
2023-05-16T02:59:26.418Z,2.97
2023-05-16T03:03:30.982Z,2.80
2023-05-16T03:07:37.626Z,2.73
2023-05-16T03:11:42.081Z,3.37
2023-05-16T03:15:47.762Z,2.90
2023-05-16T03:19:51.475Z,3.40
2023-05-16T03:23:56.537Z,3.40
2023-05-16T03:28:00.046Z,2.90
2023-05-16T03:32:03.979Z,3.00
2023-05-16T03:36:08.086Z,3.00
2023-05-16T03:40:14.071Z,2.97
2023-05-16T03:44:17.497Z,3.43
2023-05-16T03:48:22.190Z,2.87
2023-05-16T03:52:25.718Z,2.90
2023-05-16T03:56:30.753Z,3.50
2023-05-16T04:00:34.708Z,3.17
2023-05-16T04:04:38.417Z,2.97
2023-05-16T04:08:45.075Z,3.33
2023-05-16T04:12:50.316Z,3.03
2023-05-16T04:16:53.828Z,3.20
2023-05-16T04:20:58.587Z,3.03
2023-05-16T04:25:02.237Z,3.23
2023-05-16T04:29:07.392Z,2.97
2023-05-16T04:33:11.093Z,2.53
2023-05-16T04:37:14.693Z,2.63
2023-05-16T04:41:18.102Z,2.93
2023-05-16T04:45:24.351Z,3.07
2023-05-16T04:49:27.835Z,3.43
2023-05-16T04:53:31.413Z,3.27
2023-05-16T04:57:34.967Z,2.60
2023-05-16T05:01:40.158Z,2.80
2023-05-16T05:05:44.020Z,3.03
2023-05-16T05:09:47.629Z,2.67
2023-05-16T05:13:53.114Z,2.60
2023-05-16T05:17:58.352Z,3.30
2023-05-16T05:22:03.280Z,2.77
2023-05-16T05:26:06.850Z,3.13
2023-05-16T05:30:11.488Z,2.43
2023-05-16T05:34:16.385Z,2.60
2023-05-16T05:38:19.979Z,2.30
2023-05-16T05:42:23.436Z,2.27
2023-05-16T05:46:27.368Z,2.83
2023-05-16T05:50:32.325Z,3.00
2023-05-16T05:54:36.976Z,3.30
2023-05-16T05:58:42.208Z,2.97
2023-05-16T06:02:47.107Z,3.20
2023-05-16T06:06:53.428Z,3.80
2023-05-16T06:10:57.000Z,2.60
2023-05-16T06:15:01.621Z,3.43
2023-05-16T06:19:05.877Z,3.13
2023-05-16T06:23:11.020Z,3.33
2023-05-16T06:27:14.477Z,3.87
2023-05-16T06:31:18.128Z,3.10
2023-05-16T06:35:21.911Z,3.90
2023-05-16T06:39:27.397Z,3.27
2023-05-16T06:43:31.037Z,3.70
2023-05-16T06:47:34.776Z,3.53
2023-05-16T06:51:38.418Z,3.63
2023-05-16T06:55:43.601Z,4.20
2023-05-16T06:59:47.040Z,3.97
2023-05-16T07:03:52.102Z,3.63
2023-05-16T07:07:56.089Z,4.90
2023-05-16T07:12:01.143Z,4.27
2023-05-16T07:16:07.991Z,4.50
2023-05-16T07:20:13.862Z,3.90
2023-05-16T07:24:17.389Z,4.10
2023-05-16T07:28:23.890Z,4.07
2023-05-16T07:32:27.693Z,3.70
2023-05-16T07:36:31.444Z,5.00
2023-05-16T07:40:34.953Z,4.57
2023-05-16T07:44:39.832Z,4.10
2023-05-16T07:48:43.458Z,4.43
2023-05-16T07:52:47.075Z,4.40
2023-05-16T07:56:50.629Z,4.73
2023-05-16T08:00:55.615Z,3.87
2023-05-16T08:04:59.258Z,4.13
2023-05-16T08:09:02.916Z,4.33
2023-05-16T08:13:07.675Z,5.07
2023-05-16T08:17:12.716Z,6.00
2023-05-16T08:21:16.867Z,5.37
2023-05-16T08:25:20.484Z,5.40
2023-05-16T08:29:24.083Z,4.77
2023-05-16T08:33:29.000Z,5.17
2023-05-16T08:37:33.928Z,5.77
2023-05-16T08:41:39.926Z,5.77
2023-05-16T08:45:43.850Z,5.57
2023-05-16T08:49:49.769Z,5.73
2023-05-16T08:53:59.048Z,5.43
2023-05-16T08:58:02.970Z,6.40
2023-05-16T09:02:07.243Z,5.87
2023-05-16T09:06:12.513Z,5.53
2023-05-16T09:10:16.518Z,5.60
2023-05-16T09:14:21.739Z,6.10
2023-05-16T09:18:25.433Z,5.83
2023-05-16T09:22:31.600Z,5.80
2023-05-16T09:26:35.473Z,5.80
2023-05-16T09:30:39.723Z,5.03
2023-05-16T09:34:48.235Z,5.60
2023-05-16T09:38:53.505Z,5.47
2023-05-16T09:43:08.050Z,6.13
2023-05-16T09:47:11.808Z,5.87
2023-05-16T09:51:16.656Z,6.67
2023-05-16T09:55:21.646Z,6.03
2023-05-16T09:59:25.365Z,6.67
2023-05-16T10:03:29.595Z,6.90
2023-05-16T10:07:34.530Z,6.27
2023-05-16T10:11:43.268Z,6.67
2023-05-16T10:15:48.283Z,6.60
2023-05-16T10:19:55.892Z,6.50
2023-05-16T10:24:04.826Z,6.70
2023-05-16T10:28:10.674Z,7.30
2023-05-16T10:32:15.958Z,7.33
2023-05-16T10:36:19.699Z,6.80
2023-05-16T10:40:24.037Z,8.37
2023-05-16T10:44:33.361Z,8.60
2023-05-16T10:48:38.917Z,8.27
2023-05-16T10:52:42.632Z,8.93
2023-05-16T10:56:46.226Z,8.80
2023-05-16T11:01:22.467Z,7.73
2023-05-16T11:05:26.870Z,9.27
2023-05-16T11:09:30.870Z,8.10
2023-05-16T11:13:34.681Z,8.97
2023-05-16T11:17:46.088Z,10.07
2023-05-16T11:22:25.451Z,8.77
2023-05-16T11:26:29.013Z,8.37
2023-05-16T11:30:33.841Z,8.00
2023-05-16T11:34:39.804Z,8.57
2023-05-16T11:38:44.143Z,8.33
2023-05-16T11:42:48.966Z,9.43
2023-05-16T11:47:05.537Z,10.23
2023-05-16T11:51:12.258Z,9.77
2023-05-16T11:55:28.130Z,9.33
2023-05-16T11:59:36.916Z,9.50
2023-05-16T12:03:41.046Z,9.10
2023-05-16T12:07:46.830Z,11.27
2023-05-16T12:11:53.469Z,8.67
2023-05-16T12:15:57.263Z,8.70
2023-05-16T12:20:02.379Z,10.03
2023-05-16T12:24:12.528Z,9.10
2023-05-16T12:28:16.770Z,10.93
2023-05-16T12:32:20.839Z,9.90
2023-05-16T12:36:24.712Z,10.47
2023-05-16T12:40:31.720Z,9.80
2023-05-16T12:44:35.625Z,9.77
2023-05-16T12:48:40.193Z,10.33
2023-05-16T12:52:49.960Z,10.03
2023-05-16T12:56:55.095Z,8.83
2023-05-16T13:00:59.080Z,9.00
2023-05-16T13:05:02.684Z,9.07
2023-05-16T13:09:06.311Z,9.93
2023-05-16T13:13:13.679Z,9.50
2023-05-16T13:17:20.681Z,9.80
2023-05-16T13:21:24.180Z,8.63
2023-05-16T13:25:28.129Z,8.33
2023-05-16T13:29:33.360Z,8.07
2023-05-16T13:33:37.801Z,6.70
2023-05-16T13:37:42.779Z,6.63
2023-05-16T13:41:48.694Z,5.77
2023-05-16T13:45:54.225Z,7.10
2023-05-16T13:49:57.747Z,6.93
2023-05-16T13:54:01.542Z,6.10
2023-05-16T13:58:05.067Z,5.60
2023-05-16T14:02:10.041Z,6.77
2023-05-16T14:06:13.887Z,6.43
2023-05-16T14:10:17.548Z,6.47
2023-05-16T14:14:22.164Z,6.87
2023-05-16T14:18:27.171Z,6.27
2023-05-16T14:22:32.635Z,6.90
2023-05-16T14:26:36.358Z,6.70
2023-05-16T14:30:40.216Z,6.10
2023-05-16T14:34:45.208Z,6.37
2023-05-16T14:38:49.262Z,6.53
2023-05-16T14:42:52.969Z,7.97
2023-05-16T14:46:56.590Z,7.30
2023-05-16T14:51:01.479Z,6.33
2023-05-16T14:55:07.329Z,7.30
2023-05-16T14:59:10.871Z,7.70
2023-05-16T15:03:15.945Z,7.27
2023-05-16T15:07:21.230Z,7.53
2023-05-16T15:11:24.719Z,8.50
2023-05-16T15:15:30.510Z,7.27
2023-05-16T15:19:34.080Z,8.07
2023-05-16T15:23:40.380Z,8.73
2023-05-16T15:27:44.344Z,8.17
2023-05-16T15:31:48.114Z,7.60
2023-05-16T15:35:52.070Z,9.53
2023-05-16T15:39:57.156Z,10.07
2023-05-16T15:44:01.122Z,8.50
2023-05-16T15:48:04.729Z,8.83
2023-05-16T15:52:08.620Z,8.00
2023-05-16T15:56:13.676Z,7.00
2023-05-16T16:00:18.146Z,9.80
2023-05-16T16:04:24.001Z,13.30
2023-05-16T16:08:28.286Z,15.30
2023-05-16T16:12:33.301Z,9.60
2023-05-16T16:16:38.673Z,8.90
2023-05-16T16:20:42.199Z,7.43
2023-05-16T16:24:46.941Z,8.43
2023-05-16T16:28:51.949Z,8.77
2023-05-16T16:32:55.873Z,8.83
2023-05-16T16:36:59.367Z,9.70
2023-05-16T16:41:03.111Z,9.47
2023-05-16T16:45:09.353Z,11.70
2023-05-16T16:49:13.055Z,12.97
2023-05-16T16:53:16.591Z,10.20
2023-05-16T16:57:21.359Z,8.67
2023-05-16T17:01:29.692Z,10.70
2023-05-16T17:05:36.340Z,9.93
2023-05-16T17:09:42.489Z,11.43
2023-05-16T17:13:46.141Z,12.33
2023-05-16T17:17:51.790Z,12.67
2023-05-16T17:21:55.512Z,9.03
2023-05-16T17:25:59.035Z,12.17
2023-05-16T17:30:02.789Z,9.37
2023-05-16T17:34:07.948Z,12.57
2023-05-16T17:38:11.552Z,10.33
2023-05-16T17:42:15.040Z,12.07
2023-05-16T17:46:18.790Z,12.03
2023-05-16T17:50:23.771Z,13.10
2023-05-16T17:54:31.164Z,15.33
2023-05-16T17:58:34.644Z,17.73
2023-05-16T18:02:39.709Z,15.57
2023-05-16T18:06:46.300Z,14.57
2023-05-16T18:10:51.959Z,16.03
2023-05-16T18:14:56.466Z,12.70
2023-05-16T18:19:00.509Z,13.20
2023-05-16T18:23:05.659Z,14.03
2023-05-16T18:27:09.222Z,16.07
2023-05-16T18:31:13.345Z,18.10
2023-05-16T18:35:17.061Z,15.57
2023-05-16T18:39:22.239Z,13.80
2023-05-16T18:43:25.761Z,13.03
2023-05-16T18:47:29.389Z,10.60
2023-05-16T18:51:32.954Z,12.10
2023-05-16T18:55:38.026Z,11.63
2023-05-16T18:59:41.747Z,11.23
2023-05-16T19:03:45.681Z,12.53
2023-05-16T19:07:49.530Z,10.47
2023-05-16T19:11:54.458Z,10.57
2023-05-16T19:15:58.305Z,10.37
2023-05-16T19:20:01.903Z,9.87
2023-05-16T19:24:07.165Z,10.20
2023-05-16T19:28:12.508Z,9.30
2023-05-16T19:32:16.159Z,9.60
2023-05-16T19:36:19.709Z,8.87
2023-05-16T19:40:23.327Z,9.40
2023-05-16T19:44:28.208Z,7.87
2023-05-16T19:48:31.986Z,8.57
2023-05-16T19:52:36.506Z,7.17
2023-05-16T19:56:40.153Z,9.60
2023-05-16T20:00:45.114Z,10.17
2023-05-16T20:04:48.951Z,9.53
2023-05-16T20:08:52.449Z,7.03
2023-05-16T20:12:56.224Z,6.47
2023-05-16T20:17:01.249Z,5.90
2023-05-16T20:21:05.230Z,7.10
2023-05-16T20:25:10.219Z,5.97
2023-05-16T20:29:13.887Z,5.20
2023-05-16T20:33:19.003Z,5.03
2023-05-16T20:37:26.742Z,5.63
2023-05-16T20:41:30.216Z,5.67
2023-05-16T20:45:34.053Z,6.63
2023-05-16T20:49:40.114Z,6.17
2023-05-16T20:53:43.889Z,4.80
2023-05-16T20:57:47.379Z,6.37
2023-05-16T21:01:51.172Z,5.97
2023-05-16T21:05:57.664Z,5.67
2023-05-16T21:10:01.266Z,5.50
2023-05-16T21:14:05.160Z,5.50
2023-05-16T21:18:08.718Z,5.50
2023-05-16T21:22:15.354Z,5.20
2023-05-16T21:26:18.880Z,5.23
2023-05-16T21:30:22.621Z,5.83
2023-05-16T21:34:26.221Z,5.20
2023-05-16T21:38:31.572Z,7.10
2023-05-16T21:42:35.053Z,5.30
2023-05-16T21:46:38.656Z,5.73
2023-05-16T21:50:43.932Z,6.20
2023-05-16T21:54:52.051Z,7.10
2023-05-16T21:58:55.635Z,7.37
2023-05-16T22:03:00.266Z,6.00
2023-05-16T22:07:04.191Z,5.70
2023-05-16T22:11:09.253Z,6.73
2023-05-16T22:15:13.220Z,7.00
2023-05-16T22:19:16.707Z,5.67
2023-05-16T22:23:20.427Z,8.77
2023-05-16T22:27:25.364Z,7.73
2023-05-16T22:31:28.866Z,9.03
2023-05-16T22:35:34.985Z,7.70
2023-05-16T22:39:39.762Z,9.53
2023-05-16T22:43:44.764Z,9.00
2023-05-16T22:47:49.427Z,8.90
2023-05-16T22:51:52.899Z,8.77
2023-05-16T22:55:56.755Z,8.43
2023-05-16T23:00:01.611Z,9.67
2023-05-16T23:04:30.275Z,7.50
2023-05-16T23:08:34.174Z,9.43
2023-05-16T23:12:37.851Z,8.40
2023-05-16T23:16:45.051Z,9.53
2023-05-16T23:20:48.530Z,8.43
2023-05-16T23:24:52.333Z,8.87
2023-05-16T23:28:55.749Z,9.90
2023-05-16T23:33:00.852Z,9.53
2023-05-16T23:37:04.355Z,8.90
2023-05-16T23:41:08.913Z,9.70
2023-05-16T23:45:13.146Z,9.20
2023-05-16T23:49:18.370Z,9.40
2023-05-16T23:53:26.868Z,8.20
2023-05-16T23:57:30.565Z,8.47
